Time;durP1;ratioP1;P1;durP2;ratioP2;P2;SDS_P1;SDS_P2;PMS_P1;PMS_P2;Temp;Humidity;BMP_temperature;BMP_pressure;BME280_temperature;BME280_humidity;BME280_pressure;Samples;Min_cycle;Max_cycle;Signal;HPM_P1;HPM_P2
2023/12/04 00:01:55;;;;;;;;;;;;;;;;;;2211391;58;2343;-26
2023/12/04 00:04:25;;;;;;;;;;;;;;;;;;2209091;66;2000;-27
2023/12/04 00:06:55;;;;;;;;;;;;;;;;;;2212090;58;1280;-26
2023/12/04 00:09:27;;;;;;;;;;;;;;;;;;2212967;58;1245;-27
2023/12/04 00:11:57;;;;;;;;;;;;;;;;;;2212243;59;1456;-26
2023/12/04 00:14:27;;;;;;;;;;;;;;;;;;2209478;58;2242;-26
2023/12/04 00:16:57;;;;;;;;;;;;;;;;;;2212072;58;1676;-26
2023/12/04 00:19:28;;;;;;;;;;;;;;;;;;2207297;59;2450;-26
2023/12/04 00:21:58;;;;;;;;;;;;;;;;;;2211807;58;2107;-26
2023/12/04 00:24:28;;;;;;;;;;;;;;;;;;2213062;58;1986;-26
2023/12/04 00:26:58;;;;;;;;;;;;;;;;;;2211208;59;2279;-26
2023/12/04 00:29:28;;;;;;;;;;;;;;;;;;2212392;59;2303;-26
2023/12/04 00:31:59;;;;;;;;;;;;;;;;;;2208779;58;1980;-26
2023/12/04 00:34:29;;;;;;;;;;;;;;;;;;2213036;63;2009;-26
2023/12/04 00:36:59;;;;;;;;;;;;;;;;;;2211906;59;1761;-26
2023/12/04 00:39:29;;;;;;;;;;;;;;;;;;2212515;66;1543;-26
2023/12/04 00:42:00;;;;;;;;;;;;;;;;;;2208350;62;1939;-26
2023/12/04 00:44:30;;;;;;;;;;;;;;;;;;2209683;59;1977;-26
2023/12/04 00:47:00;;;;;;;;;;;;;;;;;;2206185;66;1872;-26
2023/12/04 00:49:30;;;;;;;;;;;;;;;;;;2209254;59;1918;-26
2023/12/04 00:52:00;;;;;;;;;;;;;;;;;;2209097;59;1950;-26
2023/12/04 00:54:31;;;;;;;;;;;;;;;;;;2209658;59;2365;-26
2023/12/04 00:57:01;;;;;;;;;;;;;;;;;;2212968;59;1692;-26
2023/12/04 00:59:31;;;;;;;;;;;;;;;;;;2213694;59;1788;-26
2023/12/04 01:02:02;;;;;;;;;;;;;;;;;;2213716;58;2291;-26
2023/12/04 01:04:32;;;;;;;;;;;;;;;;;;2214951;66;2182;-26
2023/12/04 01:07:02;;;;;;;;;;;;;;;;;;2210298;58;2331;-26
2023/12/04 01:09:36;;;;;;;;;;;;;;;;;;2213358;66;1846;-26
2023/12/04 01:12:06;;;;;;;;;;;;;;;;;;2209820;59;2369;-26
2023/12/04 01:14:38;;;;;;;;;;;;;;;;;;2212665;58;1894;-26
2023/12/04 01:17:08;;;;;;;;;;;;;;;;;;2211683;66;1693;-26
2023/12/04 01:19:38;;;;;;;;;;;;;;;;;;2209316;66;2156;-26
2023/12/04 01:22:09;;;;;;;;;;;;;;;;;;2215431;59;2663;-26
2023/12/04 01:24:39;;;;;;;;;;;;;;;;;;2214112;66;1932;-26
2023/12/04 01:27:10;;;;;;;;;;;;;;;;;;2213673;66;1745;-26
2023/12/04 01:29:40;;;;;;;;;;;;;;;;;;2209295;59;2251;-27
2023/12/04 01:32:11;;;;;;;;;;;;;;;;;;2209996;59;2364;-26
2023/12/04 01:34:41;;;;;;;;;;;;;;;;;;2208388;61;1956;-26
2023/12/04 01:37:11;;;;;;;;;;;;;;;;;;2213003;59;1828;-26
2023/12/04 01:39:42;;;;;;;;;;;;;;;;;;2212412;66;2129;-26
2023/12/04 01:42:12;;;;;;;;;;;;;;;;;;2213597;58;1835;-26
2023/12/04 01:44:42;;;;;;;;;;;;;;;;;;2209253;66;2015;-26
2023/12/04 01:47:13;;;;;;;;;;;;;;;;;;2209839;59;1803;-26
2023/12/04 01:49:43;;;;;;;;;;;;;;;;;;2211748;59;1886;-26
2023/12/04 01:52:14;;;;;;;;;;;;;;;;;;2213055;66;1716;-26
2023/12/04 01:54:44;;;;;;;;;;;;;;;;;;2207688;59;2072;-26
2023/12/04 01:57:14;;;;;;;;;;;;;;;;;;2209395;59;1808;-26
2023/12/04 01:59:45;;;;;;;;;;;;;;;;;;2210339;59;2362;-26
2023/12/04 02:02:16;;;;;;;;;;;;;;;;;;2213240;59;2269;-26
2023/12/04 02:04:46;;;;;;;;;;;;;;;;;;2212038;59;2517;-26
2023/12/04 02:07:17;;;;;;;;;;;;;;;;;;2212484;58;2441;-26
2023/12/04 02:09:47;;;;;;;;;;;;;;;;;;2211277;58;1640;-26
2023/12/04 02:12:17;;;;;;;;;;;;;;;;;;2213169;58;1844;-26
2023/12/04 02:14:47;;;;;;;;;;;;;;;;;;2209045;59;2158;-26
2023/12/04 02:17:18;;;;;;;;;;;;;;;;;;2209375;66;3121;-26
2023/12/04 02:19:48;;;;;;;;;;;;;;;;;;2208957;66;2139;-26
2023/12/04 02:22:19;;;;;;;;;;;;;;;;;;2211807;58;2561;-26
2023/12/04 02:24:49;;;;;;;;;;;;;;;;;;2208856;59;2103;-26
2023/12/04 02:27:27;;;;;;;;;;;;;;;;;;2213146;58;1776;-26
2023/12/04 02:30:01;;;;;;;;;;;;;;;;;;2209047;59;2317;-26
2023/12/04 02:32:33;;;;;;;;;;;;;;;;;;2208563;59;1807;-26
2023/12/04 02:35:04;;;;;;;;;;;;;;;;;;2212647;59;1904;-26
2023/12/04 02:37:35;;;;;;;;;;;;;;;;;;2212559;66;2505;-26
2023/12/04 02:40:06;;;;;;;;;;;;;;;;;;2211753;58;1767;-26
2023/12/04 02:42:36;;;;;;;;;;;;;;;;;;2213484;66;1739;-26
2023/12/04 02:45:07;;;;;;;;;;;;;;;;;;2205872;58;2362;-26
2023/12/04 02:47:37;;;;;;;;;;;;;;;;;;2212987;59;1848;-26
2023/12/04 02:50:07;;;;;;;;;;;;;;;;;;2208957;66;2031;-26
2023/12/04 02:52:37;;;;;;;;;;;;;;;;;;2205804;66;1847;-26
2023/12/04 02:55:08;;;;;;;;;;;;;;;;;;2212591;59;1866;-26
2023/12/04 02:57:38;;;;;;;;;;;;;;;;;;2212490;59;2091;-26
2023/12/04 03:00:09;;;;;;;;;;;;;;;;;;2211858;58;1898;-26
2023/12/04 03:02:39;;;;;;;;;;;;;;;;;;2212857;58;2320;-26
2023/12/04 03:05:10;;;;;;;;;;;;;;;;;;2211679;66;1945;-26
2023/12/04 03:07:40;;;;;;;;;;;;;;;;;;2212855;59;2017;-26
2023/12/04 03:10:10;;;;;;;;;;;;;;;;;;2212642;66;1771;-26
2023/12/04 03:12:41;;;;;;;;;;;;;;;;;;2206236;59;2047;-26
2023/12/04 03:15:12;;;;;;;;;;;;;;;;;;2209166;59;1912;-26
2023/12/04 03:17:43;;;;;;;;;;;;;;;;;;2211661;59;1806;-26
2023/12/04 03:20:13;;;;;;;;;;;;;;;;;;2210813;66;2523;-26
2023/12/04 03:22:43;;;;;;;;;;;;;;;;;;2207672;59;2220;-26
2023/12/04 03:25:13;;;;;;;;;;;;;;;;;;2212508;66;2634;-26
2023/12/04 03:27:43;;;;;;;;;;;;;;;;;;2211144;58;1933;-26
2023/12/04 03:30:14;;;;;;;;;;;;;;;;;;2212417;59;2329;-26
2023/12/04 03:32:44;;;;;;;;;;;;;;;;;;2208013;59;1869;-26
2023/12/04 03:35:14;;;;;;;;;;;;;;;;;;2213157;59;2456;-26
2023/12/04 03:37:45;;;;;;;;;;;;;;;;;;2211729;66;1984;-26
2023/12/04 03:40:16;;;;;;;;;;;;;;;;;;2208949;58;1661;-26
2023/12/04 03:42:46;;;;;;;;;;;;;;;;;;2205181;66;1810;-26
2023/12/04 03:45:17;;;;;;;;;;;;;;;;;;2206676;66;1963;-26
2023/12/04 03:47:47;;;;;;;;;;;;;;;;;;2208530;66;1893;-26
2023/12/04 03:50:17;;;;;;;;;;;;;;;;;;2209484;59;1481;-25
2023/12/04 03:52:48;;;;;;;;;;;;;;;;;;2208736;59;1741;-26
2023/12/04 03:55:19;;;;;;;;;;;;;;;;;;2213157;66;1845;-26
2023/12/04 03:57:50;;;;;;;;;;;;;;;;;;2211555;59;2131;-25
2023/12/04 04:00:20;;;;;;;;;;;;;;;;;;2212897;59;1873;-25
2023/12/04 04:02:50;;;;;;;;;;;;;;;;;;2211914;58;2382;-25
2023/12/04 04:05:20;;;;;;;;;;;;;;;;;;2211875;61;2131;-26
2023/12/04 04:07:51;;;;;;;;;;;;;;;;;;2212377;59;1736;-25
2023/12/04 04:10:21;;;;;;;;;;;;;;;;;;2214845;58;1801;-25
2023/12/04 04:12:51;;;;;;;;;;;;;;;;;;2210622;59;1898;-26
2023/12/04 04:15:22;;;;;;;;;;;;;;;;;;2212380;59;1942;-25
2023/12/04 04:17:52;;;;;;;;;;;;;;;;;;2215049;66;1844;-26
2023/12/04 04:20:22;;;;;;;;;;;;;;;;;;2214396;59;1867;-25
2023/12/04 04:22:53;;;;;;;;;;;;;;;;;;2211836;59;2471;-26
2023/12/04 04:25:24;;;;;;;;;;;;;;;;;;2209078;64;2273;-26
2023/12/04 04:27:54;;;;;;;;;;;;;;;;;;2211745;59;2565;-25
2023/12/04 04:30:24;;;;;;;;;;;;;;;;;;2212400;58;2253;-26
2023/12/04 04:32:54;;;;;;;;;;;;;;;;;;2208720;59;2416;-26
2023/12/04 04:35:25;;;;;;;;;;;;;;;;;;2212941;59;2368;-26
2023/12/04 04:37:55;;;;;;;;;;;;;;;;;;2211176;66;2104;-25
2023/12/04 04:40:25;;;;;;;;;;;;;;;;;;2208842;59;2332;-26
2023/12/04 04:42:55;;;;;;;;;;;;;;;;;;2211757;66;2402;-25
2023/12/04 04:45:26;;;;;;;;;;;;;;;;;;2209242;66;2348;-26
2023/12/04 04:47:56;;;;;;;;;;;;;;;;;;2208465;66;2217;-25
2023/12/04 04:50:26;;;;;;;;;;;;;;;;;;2212704;58;2339;-26
2023/12/04 04:52:56;;;;;;;;;;;;;;;;;;2208841;59;2592;-25
2023/12/04 04:55:26;;;;;;;;;;;;;;;;;;2212286;58;1863;-26
2023/12/04 04:57:57;;;;;;;;;;;;;;;;;;2211377;66;1937;-26
2023/12/04 05:00:27;;;;;;;;;;;;;;;;;;2209085;59;1884;-26
2023/12/04 05:02:57;;;;;;;;;;;;;;;;;;2212102;59;2457;-26
2023/12/04 05:05:27;;;;;;;;;;;;;;;;;;2213175;66;1925;-25
2023/12/04 05:07:57;;;;;;;;;;;;;;;;;;2205203;59;2190;-25
2023/12/04 05:13:00;;;;;;;;;;;;;;;;;;2209101;59;1922;-16
2023/12/04 05:15:30;;;;;;;;;;;;;;;;;;2212761;58;2417;-16
2023/12/04 05:18:01;;;;;;;;;;;;;;;;;;2212524;59;1875;-16
2023/12/04 05:20:31;;;;;;;;;;;;;;;;;;2212778;66;1262;-16
2023/12/04 05:23:01;;;;;;;;;;;;;;;;;;2211523;66;2175;-16
2023/12/04 05:25:31;;;;;;;;;;;;;;;;;;2212163;58;2485;-17
2023/12/04 05:28:03;;;;;;;;;;;;;;;;;;2213900;58;2090;-18
2023/12/04 05:30:33;;;;;;;;;;;;;;;;;;2213562;59;2397;-18
2023/12/04 05:33:03;;;;;;;;;;;;;;;;;;2209340;59;2005;-19
2023/12/04 05:35:34;;;;;;;;;;;;;;;;;;2213433;58;2309;-17
2023/12/04 05:38:05;;;;;;;;;;;;;;;;;;2211127;58;2167;-18
2023/12/04 05:40:35;;;;;;;;;;;;;;;;;;2208939;59;1757;-18
2023/12/04 05:43:05;;;;;;;;;;;;;;;;;;2212315;58;2122;-18
2023/12/04 05:45:35;;;;;;;;;;;;;;;;;;2212353;66;1931;-18
2023/12/04 05:48:06;;;;;;;;;;;;;;;;;;2211572;66;1697;-17
2023/12/04 05:50:36;;;;;;;;;;;;;;;;;;2212600;58;1756;-18
2023/12/04 05:53:07;;;;;;;;;;;;;;;;;;2212044;59;2019;-17
2023/12/04 05:55:37;;;;;;;;;;;;;;;;;;2210251;66;1820;-19
2023/12/04 05:58:07;;;;;;;;;;;;;;;;;;2212308;66;1867;-18
2023/12/04 06:00:38;;;;;;;;;;;;;;;;;;2213382;66;2212;-18
2023/12/04 06:03:08;;;;;;;;;;;;;;;;;;2212347;58;2164;-17
2023/12/04 06:05:38;;;;;;;;;;;;;;;;;;2210065;59;1936;-18
2023/12/04 06:08:08;;;;;;;;;;;;;;;;;;2212124;58;1830;-17
2023/12/04 06:10:39;;;;;;;;;;;;;;;;;;2213124;59;1819;-17
2023/12/04 06:13:09;;;;;;;;;;;;;;;;;;2212096;66;2403;-18
2023/12/04 06:15:39;;;;;;;;;;;;;;;;;;2212942;58;2166;-18
2023/12/04 06:18:10;;;;;;;;;;;;;;;;;;2212710;58;1781;-18
2023/12/04 06:20:40;;;;;;;;;;;;;;;;;;2213795;66;1814;-18
2023/12/04 06:23:10;;;;;;;;;;;;;;;;;;2212938;58;1842;-16
2023/12/04 06:25:41;;;;;;;;;;;;;;;;;;2212224;59;2085;-18
2023/12/04 06:28:11;;;;;;;;;;;;;;;;;;2212595;58;2434;-17
2023/12/04 06:30:42;;;;;;;;;;;;;;;;;;2212677;59;2418;-18
2023/12/04 06:33:14;;;;;;;;;;;;;;;;;;2212700;58;2150;-16
2023/12/04 06:35:45;;;;;;;;;;;;;;;;;;2212639;66;1968;-16
2023/12/04 06:38:18;;;;;;;;;;;;;;;;;;2211353;66;1912;-16
2023/12/04 06:40:48;;;;;;;;;;;;;;;;;;2212417;58;2296;-16
2023/12/04 06:43:18;;;;;;;;;;;;;;;;;;2212649;66;2094;-16
2023/12/04 06:45:49;;;;;;;;;;;;;;;;;;2212798;66;1986;-16
2023/12/04 06:48:19;;;;;;;;;;;;;;;;;;2212661;66;1705;-16
2023/12/04 06:50:50;;;;;;;;;;;;;;;;;;2212619;58;2519;-16
2023/12/04 06:53:20;;;;;;;;;;;;;;;;;;2212627;66;2317;-16
2023/12/04 06:55:50;;;;;;;;;;;;;;;;;;2212513;66;1993;-16
2023/12/04 06:58:20;;;;;;;;;;;;;;;;;;2212646;66;1728;-16
2023/12/04 07:00:53;;;;;;;;;;;;;;;;;;2213056;66;2079;-16
2023/12/04 07:03:23;;;;;;;;;;;;;;;;;;2212801;58;2141;-16
2023/12/04 07:05:53;;;;;;;;;;;;;;;;;;2212504;66;2374;-16
2023/12/04 07:08:24;;;;;;;;;;;;;;;;;;2211771;58;2740;-16
2023/12/04 07:10:54;;;;;;;;;;;;;;;;;;2212108;58;1864;-16
2023/12/04 07:13:24;;;;;;;;;;;;;;;;;;2212515;66;2024;-16
2023/12/04 07:15:55;;;;;;;;;;;;;;;;;;2212520;58;2410;-16
2023/12/04 07:18:25;;;;;;;;;;;;;;;;;;2211945;59;1849;-16
2023/12/04 07:20:55;;;;;;;;;;;;;;;;;;2212844;66;2314;-16
2023/12/04 07:23:26;;;;;;;;;;;;;;;;;;2213080;59;2222;-16
2023/12/04 07:25:56;;;;;;;;;;;;;;;;;;2211821;58;2136;-16
2023/12/04 07:28:26;;;;;;;;;;;;;;;;;;2212269;58;2198;-16
2023/12/04 07:30:56;;;;;;;;;;;;;;;;;;2212585;58;2336;-16
2023/12/04 07:33:27;;;;;;;;;;;;;;;;;;2213807;58;1222;-16
2023/12/04 07:35:57;;;;;;;;;;;;;;;;;;2212331;66;1303;-16
2023/12/04 07:38:27;;;;;;;;;;;;;;;;;;2213028;66;1321;-16
2023/12/04 07:40:58;;;;;;;;;;;;;;;;;;2211477;58;1289;-16
2023/12/04 07:43:28;;;;;;;;;;;;;;;;;;2212504;66;1549;-16
2023/12/04 07:45:58;;;;;;;;;;;;;;;;;;2212346;66;1942;-16
2023/12/04 07:48:30;;;;;;;;;;;;;;;;;;2212277;66;1593;-16
2023/12/04 07:51:00;;;;;;;;;;;;;;;;;;2212116;58;1280;-16
2023/12/04 07:53:31;;;;;;;;;;;;;;;;;;2212160;66;1161;-16
2023/12/04 07:56:05;;;;;;;;;;;;;;;;;;2212477;66;1135;-16
2023/12/04 07:58:35;;;;;;;;;;;;;;;;;;2212680;66;1390;-16
2023/12/04 08:01:05;;;;;;;;;;;;;;;;;;2212339;66;1477;-16
2023/12/04 08:03:36;;;;;;;;;;;;;;;;;;2212732;59;2188;-16
2023/12/04 08:06:06;;;;;;;;;;;;;;;;;;2212469;66;1952;-17
2023/12/04 08:08:36;;;;;;;;;;;;;;;;;;2213027;58;1269;-19
2023/12/04 08:11:09;;;;;;;;;;;;;;;;;;2212631;58;1237;-18
2023/12/04 08:13:39;;;;;;;;;;;;;;;;;;2212648;66;1410;-18
2023/12/04 08:16:16;;;;;;;;;;;;;;;;;;2212183;58;1542;-18
2023/12/04 08:18:46;;;;;;;;;;;;;;;;;;2213075;66;1681;-18
2023/12/04 08:21:16;;;;;;;;;;;;;;;;;;2211269;66;1549;-19
2023/12/04 08:23:47;;;;;;;;;;;;;;;;;;2212058;66;1403;-18
2023/12/04 08:26:24;;;;;;;;;;;;;;;;;;2210806;58;2683;-18
2023/12/04 08:28:54;;;;;;;;;;;;;;;;;;2212863;58;2299;-18
2023/12/04 08:31:24;;;;;;;;;;;;;;;;;;2212345;58;1888;-18
2023/12/04 08:33:55;;;;;;;;;;;;;;;;;;2212965;58;2321;-18
2023/12/04 08:36:44;;;;;;;;;;;;;;;;;;2212729;58;2357;-17
2023/12/04 08:39:14;;;;;;;;;;;;;;;;;;2213469;58;2468;-18
2023/12/04 08:41:45;;;;;;;;;;;;;;;;;;2213157;59;2026;-17
2023/12/04 08:44:16;;;;;;;;;;;;;;;;;;2212745;59;1981;-18
2023/12/04 08:46:46;;;;;;;;;;;;;;;;;;2213136;58;2358;-18
2023/12/04 08:49:16;;;;;;;;;;;;;;;;;;2212113;66;1825;-18
2023/12/04 08:51:46;;;;;;;;;;;;;;;;;;2213209;58;2363;-18
2023/12/04 08:54:17;;;;;;;;;;;;;;;;;;2215692;58;2417;-18
2023/12/04 08:56:47;;;;;;;;;;;;;;;;;;2213015;59;2248;-17
2023/12/04 08:59:17;;;;;;;;;;;;;;;;;;2212599;66;2306;-17
2023/12/04 09:01:48;;;;;;;;;;;;;;;;;;2212867;58;2629;-19
2023/12/04 09:04:18;;;;;;;;;;;;;;;;;;2212172;58;2478;-18
2023/12/04 09:06:48;;;;;;;;;;;;;;;;;;2213589;58;1761;-16
2023/12/04 09:09:19;;;;;;;;;;;;;;;;;;2211791;59;2779;-19
2023/12/04 09:11:49;;;;;;;;;;;;;;;;;;2213266;58;2611;-19
2023/12/04 09:14:19;;;;;;;;;;;;;;;;;;2212433;58;2319;-17
2023/12/04 09:16:49;;;;;;;;;;;;;;;;;;2213080;58;1799;-17
2023/12/04 09:19:19;;;;;;;;;;;;;;;;;;2210834;58;2563;-17
2023/12/04 09:21:50;;;;;;;;;;;;;;;;;;2212971;66;2286;-16
2023/12/04 09:24:20;;;;;;;;;;;;;;;;;;2212272;66;2071;-18
2023/12/04 09:26:50;;;;;;;;;;;;;;;;;;2212820;66;1922;-19
2023/12/04 09:29:23;;;;;;;;;;;;;;;;;;2208237;59;2528;-18
2023/12/04 09:31:54;;;;;;;;;;;;;;;;;;2213447;59;1992;-18
2023/12/04 09:34:24;;;;;;;;;;;;;;;;;;2211442;66;1944;-17
2023/12/04 09:36:55;;;;;;;;;;;;;;;;;;2213564;66;2204;-17
2023/12/04 09:39:25;;;;;;;;;;;;;;;;;;2213055;58;3483;-18
2023/12/04 09:41:56;;;;;;;;;;;;;;;;;;2210276;59;1793;-18
2023/12/04 09:44:28;;;;;;;;;;;;;;;;;;2213109;58;2683;-17
2023/12/04 09:46:59;;;;;;;;;;;;;;;;;;2213665;58;2868;-18
2023/12/04 09:49:31;;;;;;;;;;;;;;;;;;2211876;66;2449;-16
2023/12/04 09:52:02;;;;;;;;;;;;;;;;;;2213303;58;1792;-17
2023/12/04 09:54:35;;;;;;;;;;;;;;;;;;2212775;66;1796;-17
2023/12/04 09:57:05;;;;;;;;;;;;;;;;;;2212643;58;2272;-16
2023/12/04 09:59:35;;;;;;;;;;;;;;;;;;2213180;59;1843;-18
2023/12/04 10:02:06;;;;;;;;;;;;;;;;;;2212565;58;2336;-17
2023/12/04 10:04:37;;;;;;;;;;;;;;;;;;2213211;58;2347;-17
2023/12/04 10:07:07;;;;;;;;;;;;;;;;;;2212312;58;2719;-17
2023/12/04 10:09:38;;;;;;;;;;;;;;;;;;2212888;66;2560;-19
2023/12/04 10:12:09;;;;;;;;;;;;;;;;;;2212673;66;1872;-18
2023/12/04 10:14:39;;;;;;;;;;;;;;;;;;2213083;66;1840;-18
2023/12/04 10:17:13;;;;;;;;;;;;;;;;;;2212194;66;2071;-16
2023/12/04 10:19:43;;;;;;;;;;;;;;;;;;2212870;58;1889;-18
2023/12/04 10:22:14;;;;;;;;;;;;;;;;;;2212784;59;2386;-18
2023/12/04 10:24:44;;;;;;;;;;;;;;;;;;2212163;66;1923;-18
2023/12/04 10:27:17;;;;;;;;;;;;;;;;;;2211875;66;2410;-18
2023/12/04 10:29:49;;;;;;;;;;;;;;;;;;2211932;58;2588;-16
2023/12/04 10:32:21;;;;;;;;;;;;;;;;;;2210952;58;2634;-16
2023/12/04 10:34:51;;;;;;;;;;;;;;;;;;2212811;66;2081;-16
2023/12/04 10:37:22;;;;;;;;;;;;;;;;;;2211984;58;1916;-16
2023/12/04 10:39:53;;;;;;;;;;;;;;;;;;2213098;66;2323;-17
2023/12/04 10:42:25;;;;;;;;;;;;;;;;;;2212728;66;1917;-16
2023/12/04 10:44:57;;;;;;;;;;;;;;;;;;2213605;58;2482;-16
2023/12/04 10:47:28;;;;;;;;;;;;;;;;;;2212911;66;1828;-16
2023/12/04 10:49:58;;;;;;;;;;;;;;;;;;2212812;66;1926;-16
2023/12/04 10:52:30;;;;;;;;;;;;;;;;;;2212023;58;1739;-17
2023/12/04 10:55:01;;;;;;;;;;;;;;;;;;2212839;66;1402;-16
2023/12/04 10:57:33;;;;;;;;;;;;;;;;;;2212089;66;2331;-17
2023/12/04 11:00:05;;;;;;;;;;;;;;;;;;2212849;66;1810;-16
2023/12/04 11:02:40;;;;;;;;;;;;;;;;;;2213002;58;2426;-16
2023/12/04 11:05:14;;;;;;;;;;;;;;;;;;2212402;66;2543;-16
2023/12/04 11:07:47;;;;;;;;;;;;;;;;;;2212847;58;2038;-16
2023/12/04 11:10:21;;;;;;;;;;;;;;;;;;2214741;54;2122;-26
2023/12/04 11:12:56;;;;;;;;;;;;;;;;;;2211961;58;2136;-26
2023/12/04 11:15:28;;;;;;;;;;;;;;;;;;2208806;59;2292;-26
2023/12/04 11:17:59;;;;;;;;;;;;;;;;;;2213193;59;1762;-26
2023/12/04 11:20:31;;;;;;;;;;;;;;;;;;2206039;59;2560;-26
2023/12/04 11:23:03;;;;;;;;;;;;;;;;;;2210159;59;1786;-26
2023/12/04 11:25:34;;;;;;;;;;;;;;;;;;2208616;66;2045;-26
2023/12/04 11:28:05;;;;;;;;;;;;;;;;;;2213485;58;2046;-26
2023/12/04 11:30:36;;;;;;;;;;;;;;;;;;2207964;59;2367;-26
2023/12/04 11:33:06;;;;;;;;;;;;;;;;;;2213621;58;2294;-26
2023/12/04 11:35:38;;;;;;;;;;;;;;;;;;2211847;58;2517;-25
2023/12/04 11:38:12;;;;;;;;;;;;;;;;;;2209428;66;1911;-26
2023/12/04 11:40:43;;;;;;;;;;;;;;;;;;2212569;66;2272;-26
2023/12/04 11:43:27;;;;;;;;;;;;;;;;;;2209111;66;1756;-25
2023/12/04 11:46:09;;;;;;;;;;;;;;;;;;2213245;58;2415;-26
2023/12/04 11:48:42;;;;;;;;;;;;;;;;;;2212425;66;2485;-26
2023/12/04 11:51:15;;;;;;;;;;;;;;;;;;2205942;59;1880;-26
2023/12/04 11:53:45;;;;;;;;;;;;;;;;;;2209459;66;1868;-26
2023/12/04 11:56:15;;;;;;;;;;;;;;;;;;2208251;66;1986;-25
2023/12/04 11:58:46;;;;;;;;;;;;;;;;;;2211878;58;1966;-26
2023/12/04 12:01:36;;;;;;;;;;;;;;;;;;2212305;58;2635;-26
2023/12/04 12:04:07;;;;;;;;;;;;;;;;;;2212885;58;2420;-26
2023/12/04 12:06:38;;;;;;;;;;;;;;;;;;2211155;66;2475;-26
2023/12/04 12:09:09;;;;;;;;;;;;;;;;;;2208627;59;1857;-26
2023/12/04 12:11:39;;;;;;;;;;;;;;;;;;2212476;66;1929;-26
2023/12/04 12:14:09;;;;;;;;;;;;;;;;;;2212971;58;1821;-26
2023/12/04 12:16:40;;;;;;;;;;;;;;;;;;2211897;58;1925;-26
2023/12/04 12:19:10;;;;;;;;;;;;;;;;;;2213584;66;1788;-26
2023/12/04 12:21:40;;;;;;;;;;;;;;;;;;2209373;66;2084;-26
2023/12/04 12:24:11;;;;;;;;;;;;;;;;;;2213729;66;1936;-26
2023/12/04 12:26:42;;;;;;;;;;;;;;;;;;2209732;59;1875;-26
2023/12/04 12:29:12;;;;;;;;;;;;;;;;;;2210610;58;2377;-26
2023/12/04 12:31:42;;;;;;;;;;;;;;;;;;2208685;58;2301;-27
2023/12/04 12:34:13;;;;;;;;;;;;;;;;;;2212524;58;2325;-26
2023/12/04 12:36:44;;;;;;;;;;;;;;;;;;2208627;66;2197;-26
2023/12/04 12:39:15;;;;;;;;;;;;;;;;;;2211986;66;2373;-26
2023/12/04 12:41:49;;;;;;;;;;;;;;;;;;2209509;66;2539;-26
2023/12/04 12:44:19;;;;;;;;;;;;;;;;;;2212483;66;2020;-27
2023/12/04 12:46:51;;;;;;;;;;;;;;;;;;2206249;59;1914;-26
2023/12/04 12:49:21;;;;;;;;;;;;;;;;;;2208766;66;2476;-27
2023/12/04 12:51:51;;;;;;;;;;;;;;;;;;2213150;58;2427;-27
2023/12/04 12:54:24;;;;;;;;;;;;;;;;;;2209103;66;1878;-26
2023/12/04 12:56:55;;;;;;;;;;;;;;;;;;2208379;66;2271;-27
2023/12/04 12:59:26;;;;;;;;;;;;;;;;;;2212476;66;1825;-26
2023/12/04 13:02:00;;;;;;;;;;;;;;;;;;2212843;59;2427;-27
2023/12/04 13:04:34;;;;;;;;;;;;;;;;;;2208183;59;2000;-27
2023/12/04 13:07:06;;;;;;;;;;;;;;;;;;2208355;59;2372;-27
2023/12/04 13:09:36;;;;;;;;;;;;;;;;;;2208080;59;1869;-27
2023/12/04 13:12:07;;;;;;;;;;;;;;;;;;2208799;66;1738;-27
2023/12/04 13:14:38;;;;;;;;;;;;;;;;;;2213082;58;1688;-27
2023/12/04 13:17:09;;;;;;;;;;;;;;;;;;2213933;66;1772;-26
2023/12/04 13:19:39;;;;;;;;;;;;;;;;;;2208856;59;1671;-26
2023/12/04 13:22:09;;;;;;;;;;;;;;;;;;2213826;66;1850;-26
2023/12/04 13:24:41;;;;;;;;;;;;;;;;;;2209172;59;1940;-27
2023/12/04 13:27:11;;;;;;;;;;;;;;;;;;2213171;59;1709;-26
2023/12/04 13:29:41;;;;;;;;;;;;;;;;;;2209513;59;2464;-26
2023/12/04 13:32:12;;;;;;;;;;;;;;;;;;2209791;59;2302;-26
2023/12/04 13:34:42;;;;;;;;;;;;;;;;;;2208487;66;2649;-26
2023/12/04 13:37:13;;;;;;;;;;;;;;;;;;2210303;59;1892;-27
2023/12/04 13:39:51;;;;;;;;;;;;;;;;;;2212388;66;1982;-26
2023/12/04 13:45:12;;;;;;;;;;;;;;;;;;2213795;66;2475;-26
2023/12/04 13:47:43;;;;;;;;;;;;;;;;;;2208534;66;2270;-26
2023/12/04 13:50:14;;;;;;;;;;;;;;;;;;2209139;66;2001;-26
2023/12/04 13:52:44;;;;;;;;;;;;;;;;;;2212610;59;2010;-26
2023/12/04 13:55:19;;;;;;;;;;;;;;;;;;2213042;66;2288;-26
2023/12/04 14:00:29;;;;;;;;;;;;;;;;;;2212629;66;1828;-27
2023/12/04 14:03:06;;;;;;;;;;;;;;;;;;2212462;58;2391;-27
2023/12/04 14:05:37;;;;;;;;;;;;;;;;;;2209069;66;2329;-28
2023/12/04 14:08:07;;;;;;;;;;;;;;;;;;2210193;59;1954;-27
2023/12/04 14:10:37;;;;;;;;;;;;;;;;;;2212750;58;1664;-31
2023/12/04 14:13:07;;;;;;;;;;;;;;;;;;2208029;66;1283;-27
2023/12/04 14:15:38;;;;;;;;;;;;;;;;;;2212505;58;1272;-27
2023/12/04 14:18:08;;;;;;;;;;;;;;;;;;2206015;66;1824;-27
2023/12/04 14:20:39;;;;;;;;;;;;;;;;;;2212101;59;1418;-28
2023/12/04 14:23:09;;;;;;;;;;;;;;;;;;2213664;66;1248;-27
2023/12/04 14:25:39;;;;;;;;;;;;;;;;;;2212067;66;1987;-27
2023/12/04 14:28:09;;;;;;;;;;;;;;;;;;2212821;58;2070;-27
2023/12/04 14:30:40;;;;;;;;;;;;;;;;;;2212405;66;2659;-27
2023/12/04 14:33:10;;;;;;;;;;;;;;;;;;2212847;58;2448;-27
2023/12/04 14:35:41;;;;;;;;;;;;;;;;;;2206665;66;2698;-27
2023/12/04 14:38:11;;;;;;;;;;;;;;;;;;2212775;59;2464;-27
2023/12/04 14:40:41;;;;;;;;;;;;;;;;;;2209494;66;2446;-27
2023/12/04 14:43:12;;;;;;;;;;;;;;;;;;2210611;66;1781;-27
2023/12/04 14:45:42;;;;;;;;;;;;;;;;;;2209143;66;1986;-27
2023/12/04 14:48:12;;;;;;;;;;;;;;;;;;2213800;66;1843;-27
2023/12/04 14:50:42;;;;;;;;;;;;;;;;;;2209237;59;1864;-27
2023/12/04 14:53:18;;;;;;;;;;;;;;;;;;2213764;59;2130;-27
2023/12/04 14:57:14;;;;;;;;;;;;;;;;;;2209415;66;2737;-27
2023/12/04 15:13:07;;;;;;;;;;;;;;;;;;2210437;59;2363;-27
2023/12/04 15:20:52;;;;;;;;;;;;;;;;;;2213194;58;2635;-26
2023/12/04 15:23:22;;;;;;;;;;;;;;;;;;2212909;66;1706;-27
2023/12/04 15:25:52;;;;;;;;;;;;;;;;;;2212566;58;1970;-26
2023/12/04 15:28:23;;;;;;;;;;;;;;;;;;2209732;59;2256;-27
2023/12/04 15:30:53;;;;;;;;;;;;;;;;;;2206751;59;2470;-26
2023/12/04 15:33:27;;;;;;;;;;;;;;;;;;2208675;59;2573;-27
2023/12/04 15:35:57;;;;;;;;;;;;;;;;;;2211880;58;2707;-26
2023/12/04 15:38:29;;;;;;;;;;;;;;;;;;2212057;66;1922;-26
2023/12/04 15:40:59;;;;;;;;;;;;;;;;;;2208747;66;2395;-26
2023/12/04 15:43:30;;;;;;;;;;;;;;;;;;2209382;66;1785;-26
2023/12/04 15:46:00;;;;;;;;;;;;;;;;;;2206471;59;3193;-26
2023/12/04 15:48:30;;;;;;;;;;;;;;;;;;2212047;59;1618;-26
2023/12/04 15:51:01;;;;;;;;;;;;;;;;;;2208820;58;2946;-26
2023/12/04 15:53:31;;;;;;;;;;;;;;;;;;2211487;66;1930;-26
2023/12/04 15:56:03;;;;;;;;;;;;;;;;;;2212450;59;2434;-26
2023/12/04 15:58:33;;;;;;;;;;;;;;;;;;2208501;66;1678;-26
2023/12/04 16:01:05;;;;;;;;;;;;;;;;;;2212803;66;1893;-26
2023/12/04 16:03:35;;;;;;;;;;;;;;;;;;2212456;59;2388;-27
2023/12/04 16:06:06;;;;;;;;;;;;;;;;;;2212233;66;2266;-26
2023/12/04 16:08:37;;;;;;;;;;;;;;;;;;2209492;58;1757;-26
2023/12/04 16:11:07;;;;;;;;;;;;;;;;;;2207982;59;2326;-26
2023/12/04 16:13:37;;;;;;;;;;;;;;;;;;2212161;66;1725;-26
2023/12/04 16:16:08;;;;;;;;;;;;;;;;;;2209567;59;1880;-26
2023/12/04 16:18:38;;;;;;;;;;;;;;;;;;2208159;59;2625;-26
2023/12/04 16:21:08;;;;;;;;;;;;;;;;;;2212893;66;2882;-26
2023/12/04 16:23:39;;;;;;;;;;;;;;;;;;2208660;66;1789;-26
2023/12/04 16:26:10;;;;;;;;;;;;;;;;;;2209260;58;2422;-26
2023/12/04 16:28:40;;;;;;;;;;;;;;;;;;2211511;58;1983;-26
2023/12/04 16:31:10;;;;;;;;;;;;;;;;;;2212996;58;2334;-26
2023/12/04 16:33:41;;;;;;;;;;;;;;;;;;2212408;58;2538;-26
2023/12/04 16:36:11;;;;;;;;;;;;;;;;;;2211350;66;2523;-26
2023/12/04 16:38:41;;;;;;;;;;;;;;;;;;2212140;66;1712;-26
2023/12/04 16:41:13;;;;;;;;;;;;;;;;;;2212559;66;2633;-26
2023/12/04 16:43:43;;;;;;;;;;;;;;;;;;2208449;59;2401;-26
2023/12/04 16:46:13;;;;;;;;;;;;;;;;;;2212589;66;2372;-26
2023/12/04 16:48:44;;;;;;;;;;;;;;;;;;2208471;66;2212;-26
2023/12/04 16:51:14;;;;;;;;;;;;;;;;;;2209032;66;2655;-26
2023/12/04 16:53:44;;;;;;;;;;;;;;;;;;2208318;66;2217;-26
2023/12/04 16:56:14;;;;;;;;;;;;;;;;;;2212936;59;1667;-26
2023/12/04 16:58:45;;;;;;;;;;;;;;;;;;2211969;66;2209;-26
2023/12/04 17:01:15;;;;;;;;;;;;;;;;;;2206672;66;2746;-26
2023/12/04 17:03:45;;;;;;;;;;;;;;;;;;2212184;58;2378;-26
2023/12/04 17:06:15;;;;;;;;;;;;;;;;;;2209113;59;1983;-26
2023/12/04 17:08:46;;;;;;;;;;;;;;;;;;2208928;59;1970;-26
2023/12/04 17:11:16;;;;;;;;;;;;;;;;;;2209947;59;1655;-26
2023/12/04 17:13:47;;;;;;;;;;;;;;;;;;2209074;66;1799;-26
2023/12/04 17:16:18;;;;;;;;;;;;;;;;;;2210115;59;1418;-26
2023/12/04 17:18:49;;;;;;;;;;;;;;;;;;2209101;66;1664;-26
2023/12/04 17:21:19;;;;;;;;;;;;;;;;;;2208469;66;1568;-26
2023/12/04 17:23:49;;;;;;;;;;;;;;;;;;2208749;66;1626;-26
2023/12/04 17:26:19;;;;;;;;;;;;;;;;;;2208804;66;1933;-26
2023/12/04 17:28:50;;;;;;;;;;;;;;;;;;2211440;58;2250;-26
2023/12/04 17:31:20;;;;;;;;;;;;;;;;;;2212807;58;2297;-26
2023/12/04 17:33:51;;;;;;;;;;;;;;;;;;2208586;59;1666;-26
2023/12/04 17:36:21;;;;;;;;;;;;;;;;;;2212215;59;2772;-26
2023/12/04 17:38:52;;;;;;;;;;;;;;;;;;2211550;58;2136;-26
2023/12/04 17:41:22;;;;;;;;;;;;;;;;;;2209395;66;2824;-26
2023/12/04 17:43:52;;;;;;;;;;;;;;;;;;2212464;66;1935;-26
2023/12/04 17:46:22;;;;;;;;;;;;;;;;;;2213392;66;2673;-26
2023/12/04 17:48:53;;;;;;;;;;;;;;;;;;2205902;66;2262;-26
2023/12/04 17:51:23;;;;;;;;;;;;;;;;;;2212605;66;1499;-26
2023/12/04 17:53:53;;;;;;;;;;;;;;;;;;2212352;59;1905;-26
2023/12/04 17:56:23;;;;;;;;;;;;;;;;;;2213619;66;1760;-26